createdAt,value
2023-02-09T00:00:25.618Z,100851.98
2023-02-09T00:01:47.450Z,100848.52
2023-02-09T00:02:49.426Z,100852.83
2023-02-09T00:03:52.567Z,100846.69
2023-02-09T00:04:54.861Z,100843.38
2023-02-09T00:06:00.391Z,100846.98
2023-02-09T00:07:02.922Z,100851.31
2023-02-09T00:08:04.786Z,100848.55
2023-02-09T00:09:06.636Z,100848.33
2023-02-09T00:10:08.899Z,100849.30
2023-02-09T00:11:20.864Z,100845.78
2023-02-09T00:12:41.696Z,100845.58
2023-02-09T00:13:44.553Z,100847.52
2023-02-09T00:14:46.359Z,100848.00
2023-02-09T00:15:55.341Z,100845.20
2023-02-09T00:16:57.154Z,100845.66
2023-02-09T00:17:59.011Z,100841.83
2023-02-09T00:19:01.056Z,100839.67
2023-02-09T00:20:08.149Z,100838.08
2023-02-09T00:21:11.918Z,100837.30
2023-02-09T00:22:15.020Z,100835.09
2023-02-09T00:23:16.868Z,100833.82
2023-02-09T00:24:19.042Z,100828.09
2023-02-09T00:25:20.867Z,100832.02
2023-02-09T00:26:22.856Z,100831.07
2023-02-09T00:27:26.426Z,100831.55
2023-02-09T00:28:28.583Z,100828.52
2023-02-09T00:29:30.592Z,100830.79
2023-02-09T00:30:32.556Z,100827.72
2023-02-09T00:31:35.898Z,100828.80
2023-02-09T00:32:39.169Z,100831.34
2023-02-09T00:33:41.484Z,100830.55
2023-02-09T00:34:43.844Z,100834.20
2023-02-09T00:35:45.852Z,100831.60
2023-02-09T00:36:47.715Z,100832.40
2023-02-09T00:37:49.634Z,100835.23
2023-02-09T00:38:51.485Z,100834.83
2023-02-09T00:39:53.372Z,100839.66
2023-02-09T00:40:55.203Z,100839.02
2023-02-09T00:42:06.464Z,100839.98
2023-02-09T00:43:09.826Z,100837.27
2023-02-09T00:44:12.608Z,100835.75
2023-02-09T00:45:14.663Z,100834.97
2023-02-09T00:46:16.460Z,100833.29
2023-02-09T00:47:18.927Z,100830.86
2023-02-09T00:48:21.589Z,100829.38
2023-02-09T00:49:24.033Z,100829.73
2023-02-09T00:50:28.319Z,100830.07
2023-02-09T00:51:30.411Z,100832.14
2023-02-09T00:52:33.404Z,100832.63
2023-02-09T00:53:35.373Z,100825.46
2023-02-09T00:54:37.768Z,100825.81
2023-02-09T00:55:39.735Z,100826.54
2023-02-09T00:56:42.205Z,100820.65
2023-02-09T00:57:44.481Z,100820.91
2023-02-09T00:58:46.498Z,100819.86
2023-02-09T00:59:48.361Z,100813.99
2023-02-09T01:00:50.317Z,100814.11
2023-02-09T01:01:52.451Z,100815.81
2023-02-09T01:02:56.996Z,100817.67
2023-02-09T01:03:58.814Z,100818.27
2023-02-09T01:05:01.218Z,100814.16
2023-02-09T01:06:03.360Z,100815.06
2023-02-09T01:07:05.162Z,100813.25
2023-02-09T01:08:07.437Z,100808.91
2023-02-09T01:09:09.582Z,100809.91
2023-02-09T01:10:13.221Z,100808.70
2023-02-09T01:11:16.490Z,100809.89
2023-02-09T01:12:18.820Z,100809.23
2023-02-09T01:13:20.778Z,100807.03
2023-02-09T01:14:22.633Z,100801.73
2023-02-09T01:15:24.564Z,100798.80
2023-02-09T01:16:31.694Z,100794.19
2023-02-09T01:17:34.072Z,100794.48
2023-02-09T01:18:36.774Z,100793.98
2023-02-09T01:19:38.617Z,100791.80
2023-02-09T01:20:42.092Z,100790.39
2023-02-09T01:21:47.685Z,100789.67
2023-02-09T01:22:50.090Z,100788.66
2023-02-09T01:23:52.154Z,100791.08
2023-02-09T01:24:54.016Z,100788.48
2023-02-09T01:26:08.112Z,100789.54
2023-02-09T01:27:09.923Z,100786.30
2023-02-09T01:28:12.218Z,100784.46
2023-02-09T01:29:17.708Z,100781.39
2023-02-09T01:30:19.732Z,100781.60
2023-02-09T01:31:26.392Z,100778.65
2023-02-09T01:32:28.636Z,100777.13
2023-02-09T01:33:31.724Z,100776.85
2023-02-09T01:34:33.708Z,100775.73
2023-02-09T01:35:35.647Z,100774.01
2023-02-09T01:36:37.442Z,100769.73
2023-02-09T01:37:39.563Z,100776.65
2023-02-09T01:38:43.203Z,100773.19
2023-02-09T01:39:45.118Z,100767.98
2023-02-09T01:40:49.301Z,100767.40
2023-02-09T01:41:51.337Z,100766.02
2023-02-09T01:42:53.302Z,100766.83
2023-02-09T01:44:07.965Z,100769.39
2023-02-09T01:45:43.950Z,100769.40
2023-02-09T01:46:45.805Z,100764.30
2023-02-09T01:47:56.340Z,100766.44
2023-02-09T01:49:27.937Z,100761.26
2023-02-09T01:50:36.447Z,100754.44
2023-02-09T01:51:55.665Z,100757.67
2023-02-09T01:52:57.937Z,100754.91
2023-02-09T01:54:04.920Z,100754.02
2023-02-09T01:55:17.532Z,100751.36
2023-02-09T01:56:28.681Z,100749.73
2023-02-09T01:57:48.195Z,100749.12
2023-02-09T01:58:50.640Z,100744.34
2023-02-09T02:00:00.738Z,100742.13
2023-02-09T02:01:04.181Z,100743.63
2023-02-09T02:02:08.759Z,100739.73
2023-02-09T02:03:18.268Z,100740.37
2023-02-09T02:04:22.676Z,100738.24
2023-02-09T02:05:26.136Z,100735.56
2023-02-09T02:06:28.702Z,100737.37
2023-02-09T02:07:44.145Z,100738.55
2023-02-09T02:08:56.636Z,100738.77
2023-02-09T02:09:58.512Z,100734.66
2023-02-09T02:11:01.594Z,100732.60
2023-02-09T02:12:05.328Z,100730.34
2023-02-09T02:13:07.196Z,100725.63
2023-02-09T02:14:35.599Z,100724.19
2023-02-09T02:16:19.690Z,100724.43
2023-02-09T02:17:43.783Z,100722.16
2023-02-09T02:19:23.905Z,100724.12
2023-02-09T02:20:57.369Z,100720.23
2023-02-09T02:22:46.901Z,100718.18
2023-02-09T02:24:21.881Z,100717.64
2023-02-09T02:25:23.625Z,100714.85
2023-02-09T02:26:45.797Z,100715.43
2023-02-09T02:27:56.517Z,100711.23
2023-02-09T02:29:04.666Z,100708.65
2023-02-09T02:30:20.342Z,100708.48
2023-02-09T02:31:36.436Z,100707.80
2023-02-09T02:33:07.294Z,100700.56
2023-02-09T02:34:26.800Z,100695.01
2023-02-09T02:35:54.777Z,100695.35
2023-02-09T02:37:16.562Z,100692.01
2023-02-09T02:38:24.597Z,100687.51
2023-02-09T02:39:56.989Z,100688.50
2023-02-09T02:41:20.682Z,100691.09
2023-02-09T02:42:51.671Z,100691.14
2023-02-09T02:44:12.641Z,100689.25
2023-02-09T02:45:34.205Z,100686.80
2023-02-09T02:46:45.352Z,100684.70
2023-02-09T02:47:57.498Z,100685.63
2023-02-09T02:49:10.689Z,100685.11
2023-02-09T02:50:22.401Z,100683.67
2023-02-09T02:51:53.728Z,100681.64
2023-02-09T02:53:02.929Z,100681.81
2023-02-09T02:54:11.546Z,100678.11
2023-02-09T02:55:22.116Z,100676.45
2023-02-09T02:56:36.665Z,100673.95
2023-02-09T02:57:45.682Z,100672.59
2023-02-09T02:58:51.121Z,100677.86
2023-02-09T03:00:03.184Z,100678.65
2023-02-09T03:01:13.181Z,100678.09
2023-02-09T03:02:26.356Z,100680.55
2023-02-09T03:03:37.611Z,100678.56
2023-02-09T03:04:41.444Z,100671.88
2023-02-09T03:05:45.497Z,100674.48
2023-02-09T03:06:47.716Z,100675.08
2023-02-09T03:07:50.029Z,100672.93
2023-02-09T03:08:57.793Z,100670.45
2023-02-09T03:10:01.016Z,100667.98
2023-02-09T03:11:05.111Z,100666.71
2023-02-09T03:12:25.766Z,100664.13
2023-02-09T03:13:54.719Z,100666.58
2023-02-09T03:15:15.801Z,100667.61
2023-02-09T03:16:29.437Z,100665.34
2023-02-09T03:17:54.646Z,100664.89
2023-02-09T03:19:06.890Z,100669.59
2023-02-09T03:20:28.303Z,100666.94
2023-02-09T03:22:02.916Z,100662.36
2023-02-09T03:23:13.335Z,100661.63
2023-02-09T03:24:29.837Z,100663.40
2023-02-09T03:25:38.488Z,100666.36
2023-02-09T03:26:55.507Z,100665.63
2023-02-09T03:28:22.741Z,100665.45
2023-02-09T03:29:28.788Z,100661.52
2023-02-09T03:30:33.802Z,100660.67
2023-02-09T03:31:37.485Z,100659.90
2023-02-09T03:32:42.187Z,100658.91
2023-02-09T03:33:44.541Z,100654.80
2023-02-09T03:34:46.522Z,100653.61
2023-02-09T03:35:56.433Z,100652.35
2023-02-09T03:36:58.664Z,100648.62
2023-02-09T03:38:01.644Z,100648.50
2023-02-09T03:39:04.007Z,100649.48
2023-02-09T03:40:06.713Z,100646.20
2023-02-09T03:41:08.851Z,100647.46
2023-02-09T03:42:10.954Z,100645.36
2023-02-09T03:43:13.797Z,100645.53
2023-02-09T03:44:28.369Z,100641.51
2023-02-09T03:45:30.369Z,100639.08
2023-02-09T03:46:33.686Z,100638.23
2023-02-09T03:47:35.562Z,100638.61
2023-02-09T03:48:38.484Z,100638.12
2023-02-09T03:49:42.520Z,100636.43
2023-02-09T03:50:44.863Z,100636.65
2023-02-09T03:51:46.996Z,100639.29
2023-02-09T03:52:48.819Z,100640.05
2023-02-09T03:53:50.762Z,100641.69
2023-02-09T03:54:52.645Z,100641.17
2023-02-09T03:55:54.554Z,100639.94
2023-02-09T03:56:57.862Z,100638.66
2023-02-09T03:58:00.561Z,100638.21
2023-02-09T03:59:02.553Z,100639.51
2023-02-09T04:00:05.296Z,100637.38
2023-02-09T04:01:13.710Z,100638.00
2023-02-09T04:02:16.009Z,100640.30
2023-02-09T04:03:17.928Z,100638.13
2023-02-09T04:04:20.922Z,100634.73
2023-02-09T04:05:23.104Z,100631.77
2023-02-09T04:06:25.363Z,100631.06
2023-02-09T04:07:27.828Z,100626.67
2023-02-09T04:08:30.139Z,100620.36
2023-02-09T04:09:32.125Z,100620.79
2023-02-09T04:10:33.971Z,100619.87
2023-02-09T04:11:35.738Z,100619.17
2023-02-09T04:12:37.618Z,100616.65
2023-02-09T04:13:39.457Z,100615.64
2023-02-09T04:14:41.248Z,100613.15
2023-02-09T04:15:43.272Z,100610.96
2023-02-09T04:16:45.300Z,100612.61
2023-02-09T04:17:49.396Z,100609.84
2023-02-09T04:18:53.020Z,100607.48
2023-02-09T04:19:54.808Z,100605.22
2023-02-09T04:20:56.742Z,100604.25
2023-02-09T04:21:59.083Z,100606.14
2023-02-09T04:23:03.719Z,100608.29
2023-02-09T04:24:06.423Z,100604.04
2023-02-09T04:25:08.418Z,100601.85
2023-02-09T04:26:10.312Z,100602.70
2023-02-09T04:27:12.179Z,100601.11
2023-02-09T04:28:14.037Z,100596.34
2023-02-09T04:29:16.255Z,100597.23
2023-02-09T04:30:18.442Z,100593.39
2023-02-09T04:31:20.704Z,100591.75
2023-02-09T04:32:22.832Z,100591.72
2023-02-09T04:33:25.637Z,100593.96
2023-02-09T04:34:27.816Z,100588.06
2023-02-09T04:35:29.712Z,100588.93
2023-02-09T04:36:31.667Z,100591.97
2023-02-09T04:37:33.540Z,100586.63
2023-02-09T04:38:36.629Z,100584.25
2023-02-09T04:39:38.442Z,100589.05
2023-02-09T04:40:40.419Z,100592.64
2023-02-09T04:41:42.579Z,100594.54
2023-02-09T04:42:46.141Z,100591.05
2023-02-09T04:43:48.595Z,100588.86
2023-02-09T04:44:50.667Z,100589.94
2023-02-09T04:45:52.995Z,100587.26
2023-02-09T04:46:55.219Z,100581.05
2023-02-09T04:47:57.158Z,100580.84
2023-02-09T04:48:59.040Z,100576.14
2023-02-09T04:50:01.018Z,100577.34
2023-02-09T04:51:02.888Z,100578.05
2023-02-09T04:52:04.889Z,100577.67
2023-02-09T04:53:06.952Z,100576.94
2023-02-09T04:54:08.883Z,100575.40
2023-02-09T04:55:10.706Z,100575.02
2023-02-09T04:56:15.557Z,100576.27
2023-02-09T04:57:36.358Z,100576.20
2023-02-09T04:58:57.034Z,100575.78
2023-02-09T04:59:59.110Z,100573.15
2023-02-09T05:01:03.185Z,100575.24
2023-02-09T05:02:05.404Z,100577.14
2023-02-09T05:03:08.110Z,100574.83
2023-02-09T05:04:10.180Z,100575.91
2023-02-09T05:05:12.239Z,100575.27
2023-02-09T05:06:14.614Z,100578.27
2023-02-09T05:07:16.879Z,100576.02
2023-02-09T05:08:18.848Z,100580.69
2023-02-09T05:09:21.011Z,100580.86
2023-02-09T05:10:23.241Z,100574.74
2023-02-09T05:11:25.735Z,100577.48
2023-02-09T05:12:27.738Z,100577.66
2023-02-09T05:13:29.835Z,100578.16
2023-02-09T05:14:31.757Z,100576.92
2023-02-09T05:15:33.624Z,100576.46
2023-02-09T05:16:37.049Z,100576.86
2023-02-09T05:17:40.320Z,100578.47
2023-02-09T05:18:42.153Z,100581.81
2023-02-09T05:19:44.037Z,100581.30
2023-02-09T05:20:47.973Z,100580.80
2023-02-09T05:21:49.865Z,100579.77
2023-02-09T05:22:51.680Z,100576.27
2023-02-09T05:23:53.667Z,100572.90
2023-02-09T05:24:55.611Z,100572.85
2023-02-09T05:25:57.861Z,100572.80
2023-02-09T05:26:59.879Z,100571.73
2023-02-09T05:28:02.220Z,100567.55
2023-02-09T05:29:04.704Z,100565.92
2023-02-09T05:30:07.113Z,100573.51
2023-02-09T05:31:09.116Z,100573.15
2023-02-09T05:32:11.268Z,100567.64
2023-02-09T05:33:13.271Z,100571.24
2023-02-09T05:34:15.042Z,100576.59
2023-02-09T05:35:17.410Z,100572.02
2023-02-09T05:36:19.182Z,100569.48
2023-02-09T05:37:21.268Z,100573.73
2023-02-09T05:38:23.763Z,100569.70
2023-02-09T05:39:25.505Z,100570.87
2023-02-09T05:40:27.469Z,100567.01
2023-02-09T05:41:47.917Z,100563.14
2023-02-09T05:42:49.882Z,100564.42
2023-02-09T05:43:51.704Z,100563.11
2023-02-09T05:44:53.596Z,100563.45
2023-02-09T05:45:55.669Z,100560.63
2023-02-09T05:46:57.642Z,100562.16
2023-02-09T05:47:59.524Z,100560.09
2023-02-09T05:49:01.527Z,100559.26
2023-02-09T05:50:04.355Z,100561.48
2023-02-09T05:51:06.665Z,100557.67
2023-02-09T05:52:09.566Z,100557.88
2023-02-09T05:53:12.901Z,100562.95
2023-02-09T05:54:15.194Z,100562.11
2023-02-09T05:55:17.573Z,100563.46
2023-02-09T05:56:20.423Z,100557.93
2023-02-09T05:57:22.322Z,100559.86
2023-02-09T05:58:24.250Z,100559.30
2023-02-09T05:59:26.249Z,100559.60
2023-02-09T06:00:29.909Z,100561.23
2023-02-09T06:01:31.980Z,100561.73
2023-02-09T06:02:33.771Z,100557.85
2023-02-09T06:03:35.671Z,100560.23
2023-02-09T06:04:37.948Z,100556.77
2023-02-09T06:05:39.935Z,100554.88
2023-02-09T06:06:42.475Z,100554.04
2023-02-09T06:07:44.316Z,100555.48
2023-02-09T06:08:46.176Z,100557.73
2023-02-09T06:09:47.993Z,100557.93
2023-02-09T06:10:49.766Z,100553.83
2023-02-09T06:11:52.798Z,100552.73
2023-02-09T06:12:54.568Z,100550.39
2023-02-09T06:13:56.340Z,100549.85
2023-02-09T06:14:58.215Z,100547.40
2023-02-09T06:16:00.282Z,100548.85
2023-02-09T06:17:02.518Z,100548.35
2023-02-09T06:18:04.643Z,100549.50
2023-02-09T06:19:07.306Z,100547.34
2023-02-09T06:20:09.940Z,100549.46
2023-02-09T06:21:12.226Z,100547.34
2023-02-09T06:22:14.124Z,100544.70
2023-02-09T06:23:16.010Z,100541.95
2023-02-09T06:24:18.299Z,100538.00
2023-02-09T06:25:20.366Z,100540.17
2023-02-09T06:26:22.299Z,100539.17
2023-02-09T06:27:24.185Z,100539.70
2023-02-09T06:28:26.167Z,100541.58
2023-02-09T06:29:28.057Z,100538.73
2023-02-09T06:30:30.084Z,100542.33
2023-02-09T06:31:33.608Z,100542.69
2023-02-09T06:32:35.945Z,100547.40
2023-02-09T06:33:39.428Z,100545.51
2023-02-09T06:34:41.364Z,100545.41
2023-02-09T06:35:43.690Z,100548.92
2023-02-09T06:36:45.615Z,100549.45
2023-02-09T06:37:47.490Z,100548.89
2023-02-09T06:38:49.434Z,100547.00
2023-02-09T06:39:51.245Z,100548.52
2023-02-09T06:40:53.152Z,100551.59
2023-02-09T06:41:55.404Z,100548.98
2023-02-09T06:42:57.536Z,100546.50
2023-02-09T06:43:59.475Z,100551.09
2023-02-09T06:45:01.695Z,100548.54
2023-02-09T06:46:12.588Z,100548.27
2023-02-09T06:47:14.423Z,100545.19
2023-02-09T06:48:16.267Z,100545.70
2023-02-09T06:49:19.011Z,100550.08
2023-02-09T06:50:21.470Z,100549.05
2023-02-09T06:51:23.546Z,100547.52
2023-02-09T06:52:25.565Z,100551.44
2023-02-09T06:53:27.577Z,100550.58
2023-02-09T06:54:29.487Z,100549.89
2023-02-09T06:55:32.268Z,100550.73
2023-02-09T06:56:34.211Z,100546.44
2023-02-09T06:57:36.405Z,100547.14
2023-02-09T06:58:39.977Z,100545.20
2023-02-09T06:59:42.017Z,100541.36
2023-02-09T07:00:44.150Z,100545.36
2023-02-09T07:01:46.219Z,100542.63
2023-02-09T07:02:48.971Z,100540.52
2023-02-09T07:03:51.089Z,100540.73
2023-02-09T07:04:52.975Z,100541.66
2023-02-09T07:05:54.818Z,100537.89
2023-02-09T07:06:56.624Z,100537.30
2023-02-09T07:07:58.566Z,100541.11
2023-02-09T07:09:00.811Z,100540.35
2023-02-09T07:10:05.276Z,100541.10
2023-02-09T07:11:11.215Z,100539.65
2023-02-09T07:12:13.125Z,100538.77
2023-02-09T07:13:15.102Z,100542.63
2023-02-09T07:14:17.130Z,100541.05
2023-02-09T07:15:19.227Z,100540.58
2023-02-09T07:16:21.461Z,100542.33
2023-02-09T07:17:23.477Z,100539.55
2023-02-09T07:18:26.552Z,100536.74
2023-02-09T07:19:28.524Z,100532.63
2023-02-09T07:20:30.358Z,100534.53
2023-02-09T07:21:32.292Z,100532.96
2023-02-09T07:22:34.884Z,100529.66
2023-02-09T07:23:38.023Z,100524.45
2023-02-09T07:24:40.140Z,100525.92
2023-02-09T07:25:41.918Z,100524.55
2023-02-09T07:26:43.713Z,100523.13
2023-02-09T07:27:45.569Z,100521.91
2023-02-09T07:28:47.694Z,100522.96
2023-02-09T07:29:49.456Z,100519.30
2023-02-09T07:30:53.249Z,100520.81
2023-02-09T07:31:55.217Z,100519.48
2023-02-09T07:32:57.117Z,100518.77
2023-02-09T07:33:59.068Z,100520.61
2023-02-09T07:35:00.858Z,100514.46
2023-02-09T07:36:06.296Z,100515.98
2023-02-09T07:37:08.694Z,100512.91
2023-02-09T07:38:11.193Z,100515.75
2023-02-09T07:39:13.429Z,100516.67
2023-02-09T07:40:15.723Z,100511.92
2023-02-09T07:41:21.781Z,100516.79
2023-02-09T07:42:23.671Z,100517.65
2023-02-09T07:43:32.119Z,100518.08
2023-02-09T07:44:34.034Z,100521.89
2023-02-09T07:45:35.898Z,100519.15
2023-02-09T07:46:38.038Z,100517.86
2023-02-09T07:47:39.975Z,100515.59
2023-02-09T07:48:41.991Z,100517.41
2023-02-09T07:49:43.914Z,100513.17
2023-02-09T07:50:50.126Z,100512.59
2023-02-09T07:51:52.116Z,100514.86
2023-02-09T07:52:55.154Z,100511.02
2023-02-09T07:53:59.551Z,100508.29
2023-02-09T07:55:01.564Z,100507.12
2023-02-09T07:56:06.077Z,100503.86
2023-02-09T07:57:07.911Z,100505.73
2023-02-09T07:58:10.012Z,100506.23
2023-02-09T07:59:11.821Z,100504.02
2023-02-09T08:00:14.818Z,100504.35
2023-02-09T08:01:20.983Z,100503.41
2023-02-09T08:02:35.668Z,100503.48
2023-02-09T08:03:40.009Z,100506.60
2023-02-09T08:04:43.710Z,100502.09
2023-02-09T08:06:08.697Z,100506.13
2023-02-09T08:07:10.529Z,100506.35
2023-02-09T08:08:12.330Z,100502.25
2023-02-09T08:09:16.836Z,100506.02
2023-02-09T08:10:19.771Z,100501.14
2023-02-09T08:11:29.188Z,100502.09
2023-02-09T08:12:51.186Z,100497.06
2023-02-09T08:13:56.819Z,100498.65
2023-02-09T08:14:58.750Z,100498.75
2023-02-09T08:16:05.073Z,100501.66
2023-02-09T08:17:24.458Z,100501.46
2023-02-09T08:18:37.989Z,100500.77
2023-02-09T08:19:39.912Z,100507.27
2023-02-09T08:20:45.030Z,100503.02
2023-02-09T08:21:49.590Z,100500.20
2023-02-09T08:22:56.093Z,100498.98
2023-02-09T08:24:00.192Z,100496.09
2023-02-09T08:25:04.144Z,100495.60
2023-02-09T08:26:11.461Z,100495.86
2023-02-09T08:27:13.517Z,100495.39
2023-02-09T08:28:16.068Z,100495.34
2023-02-09T08:29:18.049Z,100498.04
2023-02-09T08:30:21.115Z,100498.30
2023-02-09T08:31:23.540Z,100496.02
2023-02-09T08:32:25.646Z,100498.69
2023-02-09T08:33:27.461Z,100497.98
2023-02-09T08:34:29.264Z,100488.98
2023-02-09T08:35:31.782Z,100494.19
2023-02-09T08:36:34.535Z,100493.08
2023-02-09T08:37:36.365Z,100490.52
2023-02-09T08:38:38.813Z,100493.58
2023-02-09T08:39:40.754Z,100493.04
2023-02-09T08:40:44.197Z,100493.05
2023-02-09T08:41:46.469Z,100492.35
2023-02-09T08:42:48.472Z,100491.41
2023-02-09T08:43:51.771Z,100487.99
2023-02-09T08:44:53.546Z,100489.07
2023-02-09T08:45:55.612Z,100491.92
2023-02-09T08:46:57.910Z,100491.96
2023-02-09T08:48:00.095Z,100491.17
2023-02-09T08:49:02.400Z,100488.73
2023-02-09T08:50:05.190Z,100487.27
2023-02-09T08:51:09.457Z,100489.06
2023-02-09T08:52:11.329Z,100491.69
2023-02-09T08:53:13.226Z,100487.67
2023-02-09T08:54:16.012Z,100489.45
2023-02-09T08:55:17.845Z,100489.98
2023-02-09T08:56:56.197Z,100485.50
2023-02-09T08:57:56.760Z,100488.33
2023-02-09T08:58:57.325Z,100482.37
2023-02-09T08:59:58.141Z,100486.88
2023-02-09T09:01:00.039Z,100484.75
2023-02-09T09:02:00.591Z,100482.80
2023-02-09T09:03:05.079Z,100480.66
2023-02-09T09:04:06.880Z,100480.79
2023-02-09T09:05:08.185Z,100479.48
2023-02-09T09:06:10.986Z,100478.37
2023-02-09T09:07:11.444Z,100481.76
2023-02-09T09:08:11.951Z,100482.49
2023-02-09T09:09:12.993Z,100485.00
2023-02-09T09:10:13.409Z,100483.34
2023-02-09T09:11:14.197Z,100485.43
2023-02-09T09:12:14.716Z,100481.06
2023-02-09T09:13:15.343Z,100481.48
2023-02-09T09:14:16.002Z,100482.65
2023-02-09T09:15:16.735Z,100482.90
2023-02-09T09:16:20.846Z,100482.05
2023-02-09T09:17:21.743Z,100482.37
2023-02-09T09:18:24.312Z,100481.94
2023-02-09T09:19:25.435Z,100484.52
2023-02-09T09:20:26.170Z,100483.48
2023-02-09T09:21:26.726Z,100481.72
2023-02-09T09:22:27.277Z,100479.39
2023-02-09T09:23:28.149Z,100481.73
2023-02-09T09:24:30.196Z,100486.45
2023-02-09T09:25:30.676Z,100483.64
2023-02-09T09:26:32.921Z,100485.97
2023-02-09T09:27:34.542Z,100480.88
2023-02-09T09:28:35.831Z,100478.45
2023-02-09T09:29:39.492Z,100484.52
2023-02-09T09:30:40.007Z,100481.70
2023-02-09T09:31:41.297Z,100482.70
2023-02-09T09:32:42.027Z,100480.64
2023-02-09T09:33:44.070Z,100479.45
2023-02-09T09:34:44.552Z,100476.83
2023-02-09T09:35:45.360Z,100476.55
2023-02-09T09:36:46.069Z,100475.75
2023-02-09T09:37:47.982Z,100478.22
2023-02-09T09:38:48.721Z,100476.89
2023-02-09T09:39:49.838Z,100477.77
2023-02-09T09:40:50.326Z,100478.01
2023-02-09T09:41:58.726Z,100474.27
2023-02-09T09:43:05.417Z,100476.20
2023-02-09T09:44:28.837Z,100478.50
2023-02-09T09:45:34.659Z,100475.34
2023-02-09T09:46:41.251Z,100481.41
2023-02-09T09:47:44.198Z,100475.80
2023-02-09T09:48:52.457Z,100477.56
2023-02-09T09:49:53.336Z,100473.02
2023-02-09T09:51:01.724Z,100473.23
2023-02-09T09:52:14.746Z,100466.94
2023-02-09T09:53:34.585Z,100465.92
2023-02-09T09:54:36.997Z,100464.55
2023-02-09T09:55:38.493Z,100463.82
2023-02-09T09:56:40.507Z,100460.29
2023-02-09T09:57:45.338Z,100457.42
2023-02-09T09:58:48.608Z,100455.86
2023-02-09T09:59:49.068Z,100453.93
2023-02-09T10:00:49.968Z,100453.96
2023-02-09T10:01:52.987Z,100449.04
2023-02-09T10:02:53.885Z,100447.90
2023-02-09T10:04:01.419Z,100446.93
2023-02-09T10:05:26.585Z,100442.53
2023-02-09T10:06:33.198Z,100441.48
2023-02-09T10:07:34.280Z,100443.23
2023-02-09T10:08:42.215Z,100443.63
2023-02-09T10:09:55.621Z,100441.46
2023-02-09T10:10:56.045Z,100443.55
2023-02-09T10:12:15.750Z,100438.60
2023-02-09T10:13:39.770Z,100437.05
2023-02-09T10:14:40.387Z,100438.05
2023-02-09T10:15:41.003Z,100435.95
2023-02-09T10:16:43.832Z,100426.67
2023-02-09T10:17:44.438Z,100427.67
2023-02-09T10:18:52.614Z,100425.77
2023-02-09T10:20:39.006Z,100424.63
2023-02-09T10:21:39.485Z,100416.08
2023-02-09T10:22:45.040Z,100411.85
2023-02-09T10:24:01.966Z,100409.40
2023-02-09T10:25:23.680Z,100402.75
2023-02-09T10:26:30.349Z,100395.48
2023-02-09T10:27:30.786Z,100394.16
2023-02-09T10:28:37.471Z,100395.55
2023-02-09T10:29:38.072Z,100393.52
2023-02-09T10:30:38.542Z,100391.58
2023-02-09T10:31:46.902Z,100390.41
2023-02-09T10:32:47.909Z,100389.08
2023-02-09T10:33:55.793Z,100386.50
2023-02-09T10:34:57.265Z,100385.80
2023-02-09T10:36:06.326Z,100382.81
2023-02-09T10:37:19.300Z,100380.77
2023-02-09T10:38:24.016Z,100375.77
2023-02-09T10:39:32.194Z,100373.67
2023-02-09T10:40:38.565Z,100370.33
2023-02-09T10:41:43.133Z,100366.73
2023-02-09T10:43:06.386Z,100365.55
2023-02-09T10:44:21.999Z,100363.79
2023-02-09T10:45:38.583Z,100363.25
2023-02-09T10:46:39.989Z,100358.95
2023-02-09T10:47:40.897Z,100354.10
2023-02-09T10:48:44.361Z,100358.66
2023-02-09T10:50:11.013Z,100350.92
2023-02-09T10:51:28.235Z,100354.09
2023-02-09T10:52:37.800Z,100354.25
2023-02-09T10:54:00.698Z,100355.16
2023-02-09T10:55:21.569Z,100354.45
2023-02-09T10:56:26.475Z,100353.40
2023-02-09T10:57:38.276Z,100350.95
2023-02-09T10:58:38.932Z,100349.14
2023-02-09T10:59:40.731Z,100353.02
2023-02-09T11:00:41.271Z,100352.29
2023-02-09T11:01:44.387Z,100347.27
2023-02-09T11:02:54.484Z,100340.14
2023-02-09T11:04:03.561Z,100339.55
2023-02-09T11:05:29.615Z,100338.00
2023-02-09T11:06:51.545Z,100336.32
2023-02-09T11:08:22.353Z,100333.11
2023-02-09T11:09:34.550Z,100335.42
2023-02-09T11:10:43.007Z,100331.42
2023-02-09T11:11:44.804Z,100336.02
2023-02-09T11:12:46.248Z,100332.88
2023-02-09T11:13:46.833Z,100328.27
2023-02-09T11:14:48.403Z,100321.36
2023-02-09T11:16:22.128Z,100322.40
2023-02-09T11:17:36.119Z,100326.00
2023-02-09T11:18:41.969Z,100320.53
2023-02-09T11:20:01.112Z,100324.65
2023-02-09T11:21:33.192Z,100318.08
2023-02-09T11:22:53.349Z,100321.95
2023-02-09T11:23:56.581Z,100322.23
2023-02-09T11:25:15.208Z,100318.00
2023-02-09T11:26:50.248Z,100313.97
2023-02-09T11:28:16.432Z,100312.36
2023-02-09T11:29:29.368Z,100317.19
2023-02-09T11:30:38.581Z,100321.13
2023-02-09T11:31:57.959Z,100321.85
2023-02-09T11:33:33.446Z,100324.86
2023-02-09T11:34:58.669Z,100323.64
2023-02-09T11:36:36.987Z,100317.34
2023-02-09T11:37:43.597Z,100315.96
2023-02-09T11:38:54.250Z,100312.29
2023-02-09T11:40:03.898Z,100311.10
2023-02-09T11:41:31.575Z,100308.42
2023-02-09T11:42:45.136Z,100310.15
2023-02-09T11:43:50.858Z,100310.61
2023-02-09T11:44:54.755Z,100312.88
2023-02-09T11:46:05.115Z,100307.11
2023-02-09T11:47:10.832Z,100308.92
2023-02-09T11:48:22.303Z,100309.35
2023-02-09T11:49:28.809Z,100306.14
2023-02-09T11:50:57.297Z,100309.50
2023-02-09T11:52:00.077Z,100307.98
2023-02-09T11:53:17.558Z,100303.16
2023-02-09T11:54:29.450Z,100305.57
2023-02-09T11:55:41.125Z,100302.36
2023-02-09T11:56:49.767Z,100301.86
2023-02-09T11:58:05.478Z,100300.29
2023-02-09T11:59:30.437Z,100297.55
2023-02-09T12:00:54.475Z,100296.50
2023-02-09T12:02:22.745Z,100301.17
2023-02-09T12:03:24.520Z,100299.48
2023-02-09T12:04:53.816Z,100297.86
2023-02-09T12:05:56.308Z,100301.73
2023-02-09T12:07:19.540Z,100301.55
2023-02-09T12:08:46.599Z,100297.15
2023-02-09T12:10:38.939Z,100298.52
2023-02-09T12:12:06.251Z,100294.55
2023-02-09T12:13:06.680Z,100290.55
2023-02-09T12:14:38.170Z,100281.36
2023-02-09T12:15:44.930Z,100283.64
2023-02-09T12:17:05.295Z,100284.60
2023-02-09T12:18:14.274Z,100283.50
2023-02-09T12:19:27.568Z,100276.75
2023-02-09T12:20:28.519Z,100275.73
2023-02-09T12:21:37.579Z,100271.11
2023-02-09T12:22:57.516Z,100271.95
2023-02-09T12:23:59.987Z,100266.71
2023-02-09T12:25:42.134Z,100269.11
2023-02-09T12:26:53.098Z,100271.98
2023-02-09T12:28:13.937Z,100268.28
2023-02-09T12:29:23.619Z,100265.90
2023-02-09T12:30:39.354Z,100269.38
2023-02-09T12:32:03.163Z,100269.07
2023-02-09T12:33:21.833Z,100265.12
2023-02-09T12:34:37.321Z,100265.98
2023-02-09T12:35:40.746Z,100265.52
2023-02-09T12:37:09.080Z,100264.19
2023-02-09T12:38:16.311Z,100258.65
2023-02-09T12:39:24.434Z,100257.23